Time;durP1;ratioP1;P1;durP2;ratioP2;P2;SDS_P1;SDS_P2;PMS_P1;PMS_P2;Temp;Humidity;BMP_temperature;BMP_pressure;BME280_temperature;BME280_humidity;BME280_pressure;Samples;Min_cycle;Max_cycle;Signal;HPM_P1;HPM_P2
2022/04/10 00:04:58;;;;;;;;;;;;;;;3.44;66.85156;101867.3;;;;-82
2022/04/10 00:09:56;;;;;;;;;;;;;;;3.43;66.73145;101868.4;;;;-81
2022/04/10 00:10:32;;;;;;;2.3;0.7;;;;;;;;;;;;;-82
2022/04/10 00:14:56;;;;;;;;;;;;;;;3.4;67.0332;101866.2;;;;-80
2022/04/10 00:19:57;;;;;;;;;;;;;;;3.39;66.89746;101866.2;;;;-80
2022/04/10 00:25:02;;;;;;;;;;;;;;;3.4;67.16211;101872.9;;;;-80
2022/04/10 00:29:55;;;;;;;;;;;;;;;3.4;67.25;101867.3;;;;-80
2022/04/10 00:34:56;;;;;;;;;;;;;;;3.42;67.23047;101858.9;;;;-81
2022/04/10 00:39:55;;;;;;;;;;;;;;;3.44;67.14648;101859.4;;;;-81
2022/04/10 00:40:32;;;;;;;2.5;0.7;;;;;;;;;;;;;-81
2022/04/10 00:44:56;;;;;;;;;;;;;;;3.47;67.20703;101864.2;;;;-81
2022/04/10 00:49:55;;;;;;;;;;;;;;;3.49;66.88281;101882.6;;;;-80
2022/04/10 00:54:56;;;;;;;;;;;;;;;3.5;67.01465;101874.4;;;;-80
2022/04/10 00:59:56;;;;;;;;;;;;;;;3.51;67.05957;101866.4;;;;-79
2022/04/10 01:04:59;;;;;;;;;;;;;;;3.5;66.94824;101867.7;;;;-80
2022/04/10 01:09:55;;;;;;;;;;;;;;;3.5;66.9502;101868.7;;;;-81
2022/04/10 01:10:40;;;;;;;2.8;0.8;;;;;;;;;;;;;-82
2022/04/10 01:14:59;;;;;;;;;;;;;;;3.51;66.77539;101866.5;;;;-81
2022/04/10 01:20:01;;;;;;;;;;;;;;;3.49;66.83691;101863.2;;;;-80
2022/04/10 01:24:56;;;;;;;;;;;;;;;3.46;66.70117;101862.6;;;;-80
2022/04/10 01:29:55;;;;;;;;;;;;;;;3.4;66.77051;101868.3;;;;-80
2022/04/10 01:34:55;;;;;;;;;;;;;;;3.35;66.74023;101874.2;;;;-81
2022/04/10 01:39:55;;;;;;;;;;;;;;;3.31;66.7334;101885.5;;;;-80
2022/04/10 01:40:30;;;;;;;1.3;0.5;;;;;;;;;;;;;-80
2022/04/10 01:44:58;;;;;;;;;;;;;;;3.3;66.87402;101897;;;;-80
2022/04/10 01:49:55;;;;;;;;;;;;;;;3.3;66.87402;101906.3;;;;-80
2022/04/10 01:54:56;;;;;;;;;;;;;;;3.3;67.38867;101900.6;;;;-80
2022/04/10 01:59:55;;;;;;;;;;;;;;;3.31;67.36816;101909;;;;-79
2022/04/10 02:05:04;;;;;;;;;;;;;;;3.33;68.07031;101891.8;;;;-80
2022/04/10 02:09:56;;;;;;;;;;;;;;;3.38;67.97852;101890.8;;;;-81
2022/04/10 02:10:30;;;;;;;2.6;0.4;;;;;;;;;;;;;-81
2022/04/10 02:14:55;;;;;;;;;;;;;;;3.41;67.69922;101895.3;;;;-80
2022/04/10 02:19:59;;;;;;;;;;;;;;;3.43;67.86719;101896.7;;;;-80
2022/04/10 02:24:59;;;;;;;;;;;;;;;3.46;67.79492;101894;;;;-80
2022/04/10 02:30:07;;;;;;;;;;;;;;;3.49;67.91992;101893.8;;;;-79
2022/04/10 02:34:57;;;;;;;;;;;;;;;3.5;67.61523;101895.6;;;;-80
2022/04/10 02:40:00;;;;;;;;;;;;;;;3.47;67.55664;101891;;;;-81
2022/04/10 02:40:30;;;;;;;4.4;0.6;;;;;;;;;;;;;-80
2022/04/10 02:44:56;;;;;;;;;;;;;;;3.41;67.64648;101894.4;;;;-80
2022/04/10 02:49:55;;;;;;;;;;;;;;;3.35;67.55957;101897.7;;;;-80
2022/04/10 02:54:56;;;;;;;;;;;;;;;3.25;67.51074;101898.9;;;;-80
2022/04/10 02:59:55;;;;;;;;;;;;;;;3.18;67.53223;101902.5;;;;-81
2022/04/10 03:04:56;;;;;;;;;;;;;;;3.08;67.49512;101901.8;;;;-80
2022/04/10 03:09:59;;;;;;;;;;;;;;;2.97;67.59863;101905;;;;-80
2022/04/10 03:10:30;;;;;;;1.8;0.5;;;;;;;;;;;;;-80
2022/04/10 03:14:55;;;;;;;;;;;;;;;2.91;67.63086;101906.2;;;;-79
2022/04/10 03:19:58;;;;;;;;;;;;;;;2.84;67.77441;101916.2;;;;-81
2022/04/10 03:24:55;;;;;;;;;;;;;;;2.81;67.81152;101911.9;;;;-82
2022/04/10 03:29:55;;;;;;;;;;;;;;;2.77;67.84863;101916.1;;;;-79
2022/04/10 03:34:55;;;;;;;;;;;;;;;2.71;67.77441;101915;;;;-81
2022/04/10 03:39:55;;;;;;;;;;;;;;;2.68;67.75879;101921.3;;;;-79
2022/04/10 03:40:29;;;;;;;1.9;0.5;;;;;;;;;;;;;-80
2022/04/10 03:44:55;;;;;;;;;;;;;;;2.61;67.84668;101916.9;;;;-81
2022/04/10 03:49:56;;;;;;;;;;;;;;;2.56;67.76172;101920.8;;;;-83
2022/04/10 03:54:55;;;;;;;;;;;;;;;2.5;67.91504;101921.8;;;;-79
2022/04/10 03:59:55;;;;;;;;;;;;;;;2.43;67.98145;101929.7;;;;-80
2022/04/10 04:04:55;;;;;;;;;;;;;;;2.39;67.83398;101936.6;;;;-80
2022/04/10 04:09:56;;;;;;;;;;;;;;;2.34;67.76953;101941.3;;;;-80
2022/04/10 04:10:32;;;;;;;2.2;0.5;;;;;;;;;;;;;-79
2022/04/10 04:14:57;;;;;;;;;;;;;;;2.3;67.88379;101943.8;;;;-81
2022/04/10 04:19:58;;;;;;;;;;;;;;;2.31;67.83105;101948.8;;;;-79
2022/04/10 04:24:58;;;;;;;;;;;;;;;2.31;67.83105;101951.9;;;;-79
2022/04/10 04:29:55;;;;;;;;;;;;;;;2.3;67.97266;101951.4;;;;-80
2022/04/10 04:35:04;;;;;;;;;;;;;;;2.3;67.83984;101952.2;;;;-79
2022/04/10 04:39:55;;;;;;;;;;;;;;;2.34;67.90039;101955;;;;-80
2022/04/10 04:40:29;;;;;;;1.6;0.5;;;;;;;;;;;;;-82
2022/04/10 04:44:55;;;;;;;;;;;;;;;2.39;67.9541;101959;;;;-81
2022/04/10 04:49:56;;;;;;;;;;;;;;;2.43;67.9707;101959.4;;;;-80
2022/04/10 04:54:56;;;;;;;;;;;;;;;2.48;67.84766;101998.5;;;;-80
2022/04/10 04:59:55;;;;;;;;;;;;;;;2.52;69.09668;102016.5;;;;-80
2022/04/10 05:04:55;;;;;;;;;;;;;;;2.62;69.16602;102027.1;;;;-79
2022/04/10 05:10:14;;;;;;;;;;;;;;;2.69;69.85352;102045.2;;;;-81
2022/04/10 05:10:47;;;;;;;3.5;0.5;;;;;;;;;;;;;-79
2022/04/10 05:14:58;;;;;;;;;;;;;;;2.73;70.64551;102022.7;;;;-79
2022/04/10 05:20:05;;;;;;;;;;;;;;;2.78;70.26074;102030.3;;;;-79
2022/04/10 05:24:55;;;;;;;;;;;;;;;2.83;70.12598;102034.3;;;;-81
2022/04/10 05:29:55;;;;;;;;;;;;;;;2.88;69.81934;102035.9;;;;-80
2022/04/10 05:34:55;;;;;;;;;;;;;;;2.93;69.99121;102041;;;;-80
2022/04/10 05:39:58;;;;;;;;;;;;;;;2.99;69.75;102044.8;;;;-80
2022/04/10 05:40:29;;;;;;;3;0.6;;;;;;;;;;;;;-79
2022/04/10 05:44:55;;;;;;;;;;;;;;;3.04;69.64746;102049.5;;;;-80
2022/04/10 05:49:55;;;;;;;;;;;;;;;3.1;69.47461;102050.4;;;;-79
2022/04/10 05:54:55;;;;;;;;;;;;;;;3.08;69.41504;102048.8;;;;-80
2022/04/10 05:59:56;;;;;;;;;;;;;;;3.12;69.50879;102053.9;;;;-81
2022/04/10 06:05:01;;;;;;;;;;;;;;;3.4;68.71484;102055;;;;-81
2022/04/10 06:09:56;;;;;;;;;;;;;;;3.49;68.41113;102069;;;;-80
2022/04/10 06:10:31;;;;;;;1.8;0.5;;;;;;;;;;;;;-80
2022/04/10 06:14:55;;;;;;;;;;;;;;;3.47;68.4834;102091.6;;;;-81
2022/04/10 06:19:57;;;;;;;;;;;;;;;3.49;68.7168;102086.4;;;;-80
2022/04/10 06:24:55;;;;;;;;;;;;;;;3.48;68.93359;102107.5;;;;-80
2022/04/10 06:30:00;;;;;;;;;;;;;;;3.5;68.9707;102091.1;;;;-80
2022/04/10 06:34:55;;;;;;;;;;;;;;;3.67;68.71387;102090.7;;;;-80
2022/04/10 06:39:34;;;;;;;;;;;;;;;4.02;68.58301;102096.8;;;;-75
2022/04/10 06:40:32;;;;;;;1.2;0.4;;;;;;;;;;;;;-76
2022/04/10 06:44:31;;;;;;;;;;;;;;;4.39;67.15332;102091.7;;;;-75
2022/04/10 06:49:37;;;;;;;;;;;;;;;4.76;66.44434;102095.4;;;;-76
2022/04/10 06:54:30;;;;;;;;;;;;;;;5.2;65.60059;102096.8;;;;-77
2022/04/10 06:59:30;;;;;;;;;;;;;;;5.52;64.90234;102096.1;;;;-77
2022/04/10 07:04:33;;;;;;;;;;;;;;;5.78;64.49023;102099.2;;;;-78
2022/04/10 07:09:35;;;;;;;;;;;;;;;6.06;64.28027;102104.2;;;;-76
2022/04/10 07:10:30;;;;;;;0.9;0.4;;;;;;;;;;;;;-77
2022/04/10 07:14:30;;;;;;;;;;;;;;;6.28;64.21289;102104.9;;;;-77
2022/04/10 07:19:30;;;;;;;;;;;;;;;6.5;64.04688;102117.1;;;;-77
2022/04/10 07:24:54;;;;;;;;;;;;;;;6.73;63.54102;102115.1;;;;-77
2022/04/10 07:29:19;;;;;;;;;;;;;;;7.04;63.71973;102120.7;;;;-77
2022/04/10 07:34:32;;;;;;;;;;;;;;;7.38;63.19531;102123.5;;;;-77
2022/04/10 07:39:17;;;;;;;;;;;;;;;7.8;63.11328;102121.1;;;;-77
2022/04/10 07:40:29;;;;;;;2.4;0.7;;;;;;;;;;;;;-75
2022/04/10 07:44:22;;;;;;;;;;;;;;;8.31;63.04492;102123.4;;;;-76
2022/04/10 07:49:18;;;;;;;;;;;;;;;8.81;61.8877;102135;;;;-76
2022/04/10 07:54:18;;;;;;;;;;;;;;;9.29;61.48926;102137.3;;;;-77
2022/04/10 07:59:16;;;;;;;;;;;;;;;9.56;60.7832;102138.6;;;;-78
2022/04/10 08:08:15;;;;;;;;;;;;;;;10.11;60.27051;102150.8;;;;-75
2022/04/10 08:10:29;;;;;;;5.4;0.7;;;;;;;;;;;;;-77
2022/04/10 08:13:18;;;;;;;;;;;;;;;10.49;59.76855;102147.9;;;;-78
2022/04/10 08:18:21;;;;;;;;;;;;;;;10.96;58.57129;102156.2;;;;-76
2022/04/10 08:23:40;;;;;;;;;;;;;;;11.22;57.9043;102163.3;;;;-75
2022/04/10 08:28:14;;;;;;;;;;;;;;;11.37;57.28711;102152.8;;;;-77
2022/04/10 08:33:16;;;;;;;;;;;;;;;11.56;57.17969;102157.8;;;;-75
2022/04/10 08:38:16;;;;;;;;;;;;;;;11.73;57.16895;102176.3;;;;-77
2022/04/10 08:40:39;;;;;;;7.6;1;;;;;;;;;;;;;-76
2022/04/10 08:43:19;;;;;;;;;;;;;;;12.06;56.72949;102167.8;;;;-77
2022/04/10 08:48:15;;;;;;;;;;;;;;;12.37;56.64746;102175.5;;;;-76
2022/04/10 08:53:25;;;;;;;;;;;;;;;12.72;56.17773;102171.9;;;;-77
2022/04/10 08:58:20;;;;;;;;;;;;;;;12.97;55.69336;102179.8;;;;-76
2022/04/10 09:03:15;;;;;;;;;;;;;;;13.04;55.91602;102176.5;;;;-76
2022/04/10 09:09:45;;;;;;;;;;;;;;;13.35;55.70898;102180.8;;;;-79
2022/04/10 09:10:35;;;;;;;4;0.8;;;;;;;;;;;;;-81
2022/04/10 09:14:45;;;;;;;;;;;;;;;13.67;55.13281;102181.9;;;;-81
2022/04/10 09:19:44;;;;;;;;;;;;;;;13.9;54.49707;102185.5;;;;-78
2022/04/10 09:24:57;;;;;;;;;;;;;;;13.99;54.44238;102191.2;;;;-80
2022/04/10 09:30:07;;;;;;;;;;;;;;;14.19;54.21973;102194;;;;-80
2022/04/10 09:35:13;;;;;;;;;;;;;;;14.48;54.09668;102199.5;;;;-81
2022/04/10 09:39:44;;;;;;;;;;;;;;;14.67;52.69043;102203.2;;;;-79
2022/04/10 09:40:36;;;;;;;3.2;0.7;;;;;;;;;;;;;-82
2022/04/10 09:44:50;;;;;;;;;;;;;;;14.61;53.43652;102203.3;;;;-83
2022/04/10 09:49:53;;;;;;;;;;;;;;;14.81;53.05664;102206.5;;;;-79
2022/04/10 09:55:08;;;;;;;;;;;;;;;;;;;;;
2022/04/10 10:04:46;;;;;;;;;;;;;;;15.78;52.19141;102213.4;;;;-81
2022/04/10 10:10:55;;;;;;;4.3;0.8;;;;;;;;;;;;;-79
2022/04/10 10:14:51;;;;;;;;;;;;;;;15.84;51.59961;102212.5;;;;-78
2022/04/10 10:38:50;;;;;;;;;;;;;;;16.69;57.95313;102205.8;;;;-81
2022/04/10 10:40:44;;;;;;;3.6;0.9;;;;;;;;;;;;;-81
2022/04/10 10:43:40;;;;;;;;;;;;;;;16.96;57.34277;102204.4;;;;-82
2022/04/10 10:49:06;;;;;;;;;;;;;;;17.19;59.88281;102209.1;;;;-81
2022/04/10 10:53:58;;;;;;;;;;;;;;;17.44;60.00781;102211.8;;;;-80
2022/04/10 10:58:42;;;;;;;;;;;;;;;17.56;58.6543;102220.4;;;;-81
2022/04/10 11:03:52;;;;;;;;;;;;;;;17.64;59.13965;102219.3;;;;-81
2022/04/10 11:09:12;;;;;;;;;;;;;;;17.79;59.19434;102224.7;;;;-83
2022/04/10 11:10:45;;;;;;;2.1;0.8;;;;;;;;;;;;;-82
2022/04/10 11:13:50;;;;;;;;;;;;;;;18;58.76855;102221.8;;;;-82
2022/04/10 11:19:02;;;;;;;;;;;;;;;18.19;57.93359;102206.8;;;;-81
2022/04/10 11:23:46;;;;;;;;;;;;;;;18.44;57.05762;102203.6;;;;-81
2022/04/10 11:28:59;;;;;;;;;;;;;;;18.65;57.48242;102200.9;;;;-80
2022/04/10 11:33:57;;;;;;;;;;;;;;;18.7;55.63867;102190.9;;;;-81
2022/04/10 11:39:00;;;;;;;;;;;;;;;18.61;57.5791;102188.8;;;;-81
2022/04/10 11:40:47;;;;;;;2.1;0.7;;;;;;;;;;;;;-82
2022/04/10 11:43:57;;;;;;;;;;;;;;;18.73;56.47168;102184.2;;;;-81
2022/04/10 11:48:46;;;;;;;;;;;;;;;18.91;56.93652;102185.7;;;;-82
2022/04/10 11:54:00;;;;;;;;;;;;;;;;;;;;;
2022/04/10 11:58:47;;;;;;;;;;;;;;;19.1;56.48438;102175;;;;-81
2022/04/10 12:03:53;;;;;;;;;;;;;;;19.11;57.57422;102176.2;;;;-81
2022/04/10 12:09:01;;;;;;;;;;;;;;;19.19;58.06348;102179.1;;;;-81
2022/04/10 12:10:56;;;;;;;3.1;0.6;;;;;;;;;;;;;-80
2022/04/10 12:12:23;;;;;;;;;;;;;;;19.3;58.22559;102168.9;;;;-81
2022/04/10 12:17:22;;;;;;;;;;;;;;;19.41;58.36523;102169.3;;;;-84
2022/04/10 12:22:24;;;;;;;;;;;;;;;19.49;59.26172;102167.5;;;;-85
2022/04/10 12:27:27;;;;;;;;;;;;;;;19.63;58.14355;102174.4;;;;-84
2022/04/10 12:32:21;;;;;;;;;;;;;;;19.72;58.36133;102176.2;;;;-83
2022/04/10 12:37:27;;;;;;;;;;;;;;;19.64;59.56738;102175.8;;;;-86
2022/04/10 12:40:51;;;;;;;3.2;0.8;;;;;;;;;;;;;-83
2022/04/10 12:42:24;;;;;;;;;;;;;;;19.54;60.00781;102173.4;;;;-84
2022/04/10 12:47:32;;;;;;;;;;;;;;;19.52;58.65234;102171.3;;;;-84
2022/04/10 12:52:28;;;;;;;;;;;;;;;19.57;58.96484;102171.9;;;;-84
2022/04/10 12:57:29;;;;;;;;;;;;;;;19.69;58.78809;102171;;;;-83
2022/04/10 13:02:30;;;;;;;;;;;;;;;19.79;58.1748;102175.6;;;;-85
2022/04/10 13:42:10;;;;;;;;;;;;;;;20.03;60.35742;102160.7;;;;-83
2022/04/10 13:55:32;;;;;;;;;;;;;;;19.95;60.95996;102140.9;;;;-80
2022/04/10 14:27:35;;;;;;;;;;;;;;;20.29;60.25684;102139.7;;;;-82
2022/04/10 14:35:31;;;;;;;;;;;;;;;20.16;61.86426;102132.1;;;;-84
2022/04/10 14:44:30;;;;;;;;;;;;;;;19.9;59.29395;102139.6;;;;-84
2022/04/10 15:18:52;;;;;;;;;;;;;;;19.56;59.9082;102108.8;;;;-83
2022/04/10 15:46:34;;;;;;;;;;;;;;;18.97;57.68262;102096.5;;;;-85
2022/04/10 16:25:41;;;;;;;;;;;;;;;17.18;56.85059;102082.9;;;;-81
2022/04/10 16:30:17;;;;;;;;;;;;;;;17.03;56.20996;102085.4;;;;-82
2022/04/10 16:35:03;;;;;;;;;;;;;;;16.86;56.3916;102085.3;;;;-82
2022/04/10 16:39:58;;;;;;;;;;;;;;;16.68;55.19336;102093.5;;;;-82
2022/04/10 16:41:12;;;;;;;2.6;0.7;;;;;;;;;;;;;-80
2022/04/10 17:42:37;;;;;;;;;;;;;;;;;;;;;
2022/04/10 17:52:56;;;;;;;;;;;;;;;13.3;56.57715;102105.9;;;;-78
2022/04/10 17:59:45;;;;;;;;;;;;;;;12.96;56.34375;102106.2;;;;-78
2022/04/10 18:16:27;;;;;;;;;;;;;;;12.11;56.25586;102109.5;;;;-78
2022/04/10 18:25:20;;;;;;;;;;;;;;;11.57;56.26465;102106.1;;;;-79
2022/04/10 18:30:27;;;;;;;;;;;;;;;11.27;56.1709;102111.3;;;;-77
2022/04/10 18:35:18;;;;;;;;;;;;;;;10.99;56.95996;102113.3;;;;-78
2022/04/10 18:40:10;;;;;;;;;;;;;;;10.71;56.79004;102118.9;;;;-79
2022/04/10 18:41:25;;;;;;;2.9;1.4;;;;;;;;;;;;;-78
2022/04/10 18:45:16;;;;;;;;;;;;;;;10.44;56.63086;102113.4;;;;-78
2022/04/10 18:50:19;;;;;;;;;;;;;;;10.19;56.69922;102110.8;;;;-78
2022/04/10 18:55:10;;;;;;;;;;;;;;;9.94;56.19824;102120.2;;;;-77
2022/04/10 19:00:09;;;;;;;;;;;;;;;9.68;56.33398;102123.9;;;;-78
2022/04/10 19:05:09;;;;;;;;;;;;;;;9.46;56.50391;102129.3;;;;-78
2022/04/10 19:11:31;;;;;;;3.3;1.5;;;;;;;;;;;;;-76
2022/04/10 19:15:15;;;;;;;;;;;;;;;9.04;56.66016;102134.4;;;;-77
2022/04/10 19:20:11;;;;;;;;;;;;;;;8.83;56.74414;102133.7;;;;-77
2022/04/10 19:25:14;;;;;;;;;;;;;;;8.62;57.01563;102135;;;;-77
2022/04/10 19:30:18;;;;;;;;;;;;;;;8.42;57.31055;102135.1;;;;-77
2022/04/10 19:35:15;;;;;;;;;;;;;;;8.22;57.50684;102140.6;;;;-77
2022/04/10 19:40:19;;;;;;;;;;;;;;;8.03;57.76953;102136;;;;-77
2022/04/10 19:41:29;;;;;;;3.4;1.3;;;;;;;;;;;;;-77
2022/04/10 19:45:13;;;;;;;;;;;;;;;7.84;57.9873;102130.6;;;;-77
2022/04/10 19:50:09;;;;;;;;;;;;;;;7.67;58.17578;102126.7;;;;-76
2022/04/10 19:55:09;;;;;;;;;;;;;;;7.5;58.40723;102123.5;;;;-77
2022/04/10 20:00:14;;;;;;;;;;;;;;;7.35;58.54004;102122.2;;;;-76
2022/04/10 20:05:26;;;;;;;;;;;;;;;;;;;;;
2022/04/10 20:11:27;;;;;;;3.8;1.6;;;;;;;;;;;;;-82
2022/04/10 20:11:57;;;;;;;;;;;;;;;7.03;59.23828;102133.2;;;;-82
2022/04/10 20:22:06;;;;;;;;;;;;;;;6.74;59.37598;102128.4;;;;-81
2022/04/10 20:26:57;;;;;;;;;;;;;;;6.62;59.56836;102126.5;;;;-80
2022/04/10 20:32:10;;;;;;;;;;;;;;;6.5;59.52832;102115.7;;;;-81
2022/04/10 20:37:06;;;;;;;;;;;;;;;6.39;59.79004;102117.5;;;;-82
2022/04/10 20:41:24;;;;;;;3.5;1.5;;;;;;;;;;;;;-81
2022/04/10 20:42:03;;;;;;;;;;;;;;;6.31;59.7666;102117.5;;;;-82
2022/04/10 20:46:59;;;;;;;;;;;;;;;6.22;59.98633;102123.3;;;;-81
2022/04/10 20:52:05;;;;;;;;;;;;;;;6.15;60.1084;102120;;;;-82
2022/04/10 20:57:02;;;;;;;;;;;;;;;6.08;59.98828;102114.3;;;;-81
2022/04/10 21:02:00;;;;;;;;;;;;;;;6.01;59.91309;102111.2;;;;-81
2022/04/10 21:07:08;;;;;;;;;;;;;;;5.93;60.17578;102107.7;;;;-82
2022/04/10 21:11:22;;;;;;;4.3;1.8;;;;;;;;;;;;;-82
2022/04/10 21:12:05;;;;;;;;;;;;;;;5.85;60.29785;102105.2;;;;-81
2022/04/10 21:16:56;;;;;;;;;;;;;;;5.78;60.27734;102108.4;;;;-81
2022/04/10 21:21:58;;;;;;;;;;;;;;;5.71;60.14648;102106.1;;;;-82
2022/04/10 21:26:56;;;;;;;;;;;;;;;5.62;60.32129;102104.6;;;;-82
2022/04/10 21:31:58;;;;;;;;;;;;;;;5.53;60.3418;102101.9;;;;-82
2022/04/10 21:37:25;;;;;;;;;;;;;;;5.46;60.41016;102106;;;;-82
2022/04/10 21:41:28;;;;;;;4.5;1.7;;;;;;;;;;;;;-82
2022/04/10 21:42:04;;;;;;;;;;;;;;;5.4;60.65332;102101.6;;;;-82
2022/04/10 21:47:03;;;;;;;;;;;;;;;5.35;60.60156;102100;;;;-82
2022/04/10 21:52:00;;;;;;;;;;;;;;;5.28;60.90137;102096.1;;;;-81
2022/04/10 21:57:03;;;;;;;;;;;;;;;5.22;61.02344;102095.9;;;;-82
2022/04/10 22:02:06;;;;;;;;;;;;;;;;;;;;;
2022/04/10 22:06:59;;;;;;;;;;;;;;;5.13;61.0127;102086.2;;;;-82
2022/04/10 22:11:34;;;;;;;4.8;2;;;;;;;;;;;;;-82
2022/04/10 22:11:59;;;;;;;;;;;;;;;5.1;60.875;102088.4;;;;-82
2022/04/10 22:17:00;;;;;;;;;;;;;;;5.05;60.80176;102084;;;;-81
2022/04/10 22:21:57;;;;;;;;;;;;;;;5;60.81738;102086.9;;;;-82
2022/04/10 22:26:56;;;;;;;;;;;;;;;4.95;60.85449;102081.3;;;;-83
2022/04/10 22:31:57;;;;;;;;;;;;;;;4.87;60.7666;102089.1;;;;-82
2022/04/10 22:36:56;;;;;;;;;;;;;;;4.82;60.89063;102089.8;;;;-81
2022/04/10 22:41:24;;;;;;;5.1;2;;;;;;;;;;;;;-81
2022/04/10 22:42:03;;;;;;;;;;;;;;;4.79;60.8877;102091.6;;;;-81
2022/04/10 22:46:57;;;;;;;;;;;;;;;4.76;60.77148;102094.3;;;;-80
2022/04/10 22:51:56;;;;;;;;;;;;;;;4.72;60.71094;102090.5;;;;-82
2022/04/10 22:56:56;;;;;;;;;;;;;;;4.68;60.76074;102094.5;;;;-82
2022/04/10 23:01:56;;;;;;;;;;;;;;;4.63;60.73145;102098.1;;;;-81
2022/04/10 23:06:57;;;;;;;;;;;;;;;4.58;60.8457;102093.3;;;;-82
2022/04/10 23:11:23;;;;;;;4.4;1.8;;;;;;;;;;;;;-84
2022/04/10 23:11:58;;;;;;;;;;;;;;;4.57;60.88672;102101;;;;-82
2022/04/10 23:16:57;;;;;;;;;;;;;;;4.52;60.84766;102099.1;;;;-81
2022/04/10 23:22:01;;;;;;;;;;;;;;;4.49;60.96484;102102.7;;;;-81
2022/04/10 23:26:57;;;;;;;;;;;;;;;4.47;61.00488;102094.5;;;;-82
2022/04/10 23:32:10;;;;;;;;;;;;;;;4.46;61.3877;102089.6;;;;-82
2022/04/10 23:36:59;;;;;;;;;;;;;;;4.46;61.01563;102082.8;;;;-82
2022/04/10 23:41:28;;;;;;;3.4;1.5;;;;;;;;;;;;;-81
2022/04/10 23:41:58;;;;;;;;;;;;;;;4.46;61.18945;102081.8;;;;-80
2022/04/10 23:46:55;;;;;;;;;;;;;;;4.43;61.35059;102073.5;;;;-82
2022/04/10 23:51:57;;;;;;;;;;;;;;;4.43;61.24121;102067.9;;;;-82
2022/04/10 23:56:58;;;;;;;;;;;;;;;4.43;61.13086;102066.9;;;;-80
